sensor_id;sensor_type;location;lat;lon;timestamp;temperature;humidity
9666;DHT22;4871;52.004;5.924;2024-02-14T00:00:00;8.1;101.3
9666;DHT22;4871;52.004;5.924;2024-02-14T00:01:00;8.1;100.7
9666;DHT22;4871;52.004;5.924;2024-02-14T00:02:00;8.1;100.5
9666;DHT22;4871;52.004;5.924;2024-02-14T00:03:00;8.1;100.9
9666;DHT22;4871;52.004;5.924;2024-02-14T00:04:00;8.1;100.9
9666;DHT22;4871;52.004;5.924;2024-02-14T00:05:00;8.1;100.8
9666;DHT22;4871;52.004;5.924;2024-02-14T00:06:00;8.1;101.0
9666;DHT22;4871;52.004;5.924;2024-02-14T00:07:00;8.1;100.7
9666;DHT22;4871;52.004;5.924;2024-02-14T00:08:00;8.1;100.7
9666;DHT22;4871;52.004;5.924;2024-02-14T00:09:00;8.1;100.7
9666;DHT22;4871;52.004;5.924;2024-02-14T00:10:00;8.1;101.1
9666;DHT22;4871;52.004;5.924;2024-02-14T00:11:00;8.1;100.8
9666;DHT22;4871;52.004;5.924;2024-02-14T00:12:00;8.2;101.0
9666;DHT22;4871;52.004;5.924;2024-02-14T00:13:00;8.1;101.3
9666;DHT22;4871;52.004;5.924;2024-02-14T00:14:00;8.2;100.9
9666;DHT22;4871;52.004;5.924;2024-02-14T00:15:01;8.2;100.7
9666;DHT22;4871;52.004;5.924;2024-02-14T00:16:01;8.2;100.7
9666;DHT22;4871;52.004;5.924;2024-02-14T00:17:00;8.2;100.7
9666;DHT22;4871;52.004;5.924;2024-02-14T00:18:01;8.2;100.5
9666;DHT22;4871;52.004;5.924;2024-02-14T00:19:03;8.2;100.7
9666;DHT22;4871;52.004;5.924;2024-02-14T00:20:00;8.2;100.4
9666;DHT22;4871;52.004;5.924;2024-02-14T00:21:00;8.2;100.6
9666;DHT22;4871;52.004;5.924;2024-02-14T00:22:00;8.2;100.9
9666;DHT22;4871;52.004;5.924;2024-02-14T00:23:01;8.2;100.6
9666;DHT22;4871;52.004;5.924;2024-02-14T00:24:01;8.2;101.2
9666;DHT22;4871;52.004;5.924;2024-02-14T00:25:01;8.2;101.3
9666;DHT22;4871;52.004;5.924;2024-02-14T00:26:00;8.2;101.2
9666;DHT22;4871;52.004;5.924;2024-02-14T00:27:00;8.2;100.5
9666;DHT22;4871;52.004;5.924;2024-02-14T00:28:00;8.2;100.7
9666;DHT22;4871;52.004;5.924;2024-02-14T00:29:00;8.2;101.3
9666;DHT22;4871;52.004;5.924;2024-02-14T00:30:00;8.2;100.8
9666;DHT22;4871;52.004;5.924;2024-02-14T00:31:00;8.2;100.8
9666;DHT22;4871;52.004;5.924;2024-02-14T00:32:00;8.2;100.9
9666;DHT22;4871;52.004;5.924;2024-02-14T00:33:01;8.2;101.0
9666;DHT22;4871;52.004;5.924;2024-02-14T00:34:00;8.2;100.4
9666;DHT22;4871;52.004;5.924;2024-02-14T00:35:00;8.2;101.3
9666;DHT22;4871;52.004;5.924;2024-02-14T00:36:00;8.2;101.0
9666;DHT22;4871;52.004;5.924;2024-02-14T00:37:00;8.2;100.7
9666;DHT22;4871;52.004;5.924;2024-02-14T00:38:00;8.2;100.9
9666;DHT22;4871;52.004;5.924;2024-02-14T00:39:00;8.2;100.7
9666;DHT22;4871;52.004;5.924;2024-02-14T00:40:00;8.2;100.9
9666;DHT22;4871;52.004;5.924;2024-02-14T00:41:00;8.2;101.1
9666;DHT22;4871;52.004;5.924;2024-02-14T00:42:00;8.2;101.5
9666;DHT22;4871;52.004;5.924;2024-02-14T00:43:00;8.2;101.2
9666;DHT22;4871;52.004;5.924;2024-02-14T00:44:00;8.2;101.6
9666;DHT22;4871;52.004;5.924;2024-02-14T00:45:00;8.2;101.1
9666;DHT22;4871;52.004;5.924;2024-02-14T00:46:00;8.2;101.1
9666;DHT22;4871;52.004;5.924;2024-02-14T00:47:02;8.2;101.7
9666;DHT22;4871;52.004;5.924;2024-02-14T00:48:01;8.2;101.9
9666;DHT22;4871;52.004;5.924;2024-02-14T00:49:00;8.2;101.3
9666;DHT22;4871;52.004;5.924;2024-02-14T00:50:00;8.3;101.5
9666;DHT22;4871;52.004;5.924;2024-02-14T00:51:00;8.3;101.1
9666;DHT22;4871;52.004;5.924;2024-02-14T00:52:00;8.3;101.0
9666;DHT22;4871;52.004;5.924;2024-02-14T00:53:00;8.3;100.8
9666;DHT22;4871;52.004;5.924;2024-02-14T00:54:00;8.3;100.8
9666;DHT22;4871;52.004;5.924;2024-02-14T00:55:03;8.3;100.8
9666;DHT22;4871;52.004;5.924;2024-02-14T00:56:00;8.3;101.2
9666;DHT22;4871;52.004;5.924;2024-02-14T00:57:00;8.3;100.7
9666;DHT22;4871;52.004;5.924;2024-02-14T00:58:00;8.3;100.9
9666;DHT22;4871;52.004;5.924;2024-02-14T00:59:00;8.3;100.7
9666;DHT22;4871;52.004;5.924;2024-02-14T01:00:00;8.3;101.2
9666;DHT22;4871;52.004;5.924;2024-02-14T01:01:00;8.3;100.7
9666;DHT22;4871;52.004;5.924;2024-02-14T01:02:00;8.3;100.8
9666;DHT22;4871;52.004;5.924;2024-02-14T01:03:01;8.3;100.6
9666;DHT22;4871;52.004;5.924;2024-02-14T01:04:00;8.3;100.6
9666;DHT22;4871;52.004;5.924;2024-02-14T01:05:00;8.3;100.7
9666;DHT22;4871;52.004;5.924;2024-02-14T01:06:00;8.3;100.7
9666;DHT22;4871;52.004;5.924;2024-02-14T01:07:00;8.3;101.1
9666;DHT22;4871;52.004;5.924;2024-02-14T01:08:00;8.3;101.0
9666;DHT22;4871;52.004;5.924;2024-02-14T01:09:00;8.3;101.1
9666;DHT22;4871;52.004;5.924;2024-02-14T01:10:00;8.3;100.8
9666;DHT22;4871;52.004;5.924;2024-02-14T01:11:00;8.4;100.8
9666;DHT22;4871;52.004;5.924;2024-02-14T01:12:00;8.3;101.2
9666;DHT22;4871;52.004;5.924;2024-02-14T01:13:01;8.3;101.1
9666;DHT22;4871;52.004;5.924;2024-02-14T01:14:01;8.3;100.9
9666;DHT22;4871;52.004;5.924;2024-02-14T01:15:00;8.3;100.8
9666;DHT22;4871;52.004;5.924;2024-02-14T01:16:02;8.4;101.1
9666;DHT22;4871;52.004;5.924;2024-02-14T01:17:00;8.3;101.2
9666;DHT22;4871;52.004;5.924;2024-02-14T01:18:00;8.3;101.5
9666;DHT22;4871;52.004;5.924;2024-02-14T01:19:00;8.4;101.1
9666;DHT22;4871;52.004;5.924;2024-02-14T01:20:00;8.4;100.9
9666;DHT22;4871;52.004;5.924;2024-02-14T01:21:00;8.4;101.2
9666;DHT22;4871;52.004;5.924;2024-02-14T01:22:00;8.4;100.6
9666;DHT22;4871;52.004;5.924;2024-02-14T01:23:00;8.4;101.6
9666;DHT22;4871;52.004;5.924;2024-02-14T01:24:00;8.4;100.9
9666;DHT22;4871;52.004;5.924;2024-02-14T01:25:00;8.4;101.2
9666;DHT22;4871;52.004;5.924;2024-02-14T01:26:00;8.4;101.1
9666;DHT22;4871;52.004;5.924;2024-02-14T01:27:00;8.4;101.6
9666;DHT22;4871;52.004;5.924;2024-02-14T01:28:00;8.4;101.1
9666;DHT22;4871;52.004;5.924;2024-02-14T01:29:01;8.4;101.6
9666;DHT22;4871;52.004;5.924;2024-02-14T01:30:00;8.4;101.1
9666;DHT22;4871;52.004;5.924;2024-02-14T01:31:00;8.4;101.0
9666;DHT22;4871;52.004;5.924;2024-02-14T01:32:01;8.4;101.2
9666;DHT22;4871;52.004;5.924;2024-02-14T01:33:01;8.4;100.8
9666;DHT22;4871;52.004;5.924;2024-02-14T01:34:02;8.4;100.9
9666;DHT22;4871;52.004;5.924;2024-02-14T01:35:00;8.4;100.9
9666;DHT22;4871;52.004;5.924;2024-02-14T01:36:00;8.4;100.8
9666;DHT22;4871;52.004;5.924;2024-02-14T01:37:00;8.4;101.0
9666;DHT22;4871;52.004;5.924;2024-02-14T01:38:02;8.5;100.8
9666;DHT22;4871;52.004;5.924;2024-02-14T01:39:00;8.4;101.0
9666;DHT22;4871;52.004;5.924;2024-02-14T01:40:00;8.4;101.7
9666;DHT22;4871;52.004;5.924;2024-02-14T01:41:01;8.4;101.8
9666;DHT22;4871;52.004;5.924;2024-02-14T01:42:00;8.4;101.1
9666;DHT22;4871;52.004;5.924;2024-02-14T01:43:00;8.4;101.2
9666;DHT22;4871;52.004;5.924;2024-02-14T01:44:00;8.4;101.5
9666;DHT22;4871;52.004;5.924;2024-02-14T01:45:00;8.4;101.8
9666;DHT22;4871;52.004;5.924;2024-02-14T01:46:05;8.4;101.2
9666;DHT22;4871;52.004;5.924;2024-02-14T01:47:00;8.5;101.2
9666;DHT22;4871;52.004;5.924;2024-02-14T01:48:00;8.5;101.0
9666;DHT22;4871;52.004;5.924;2024-02-14T01:49:00;8.5;101.6
9666;DHT22;4871;52.004;5.924;2024-02-14T01:50:01;8.5;101.0
9666;DHT22;4871;52.004;5.924;2024-02-14T01:51:01;8.5;101.0
9666;DHT22;4871;52.004;5.924;2024-02-14T01:52:02;8.5;101.2
9666;DHT22;4871;52.004;5.924;2024-02-14T01:53:01;8.4;101.8
9666;DHT22;4871;52.004;5.924;2024-02-14T01:54:00;8.4;101.9
9666;DHT22;4871;52.004;5.924;2024-02-14T01:55:01;8.5;101.7
9666;DHT22;4871;52.004;5.924;2024-02-14T01:56:00;8.5;101.2
9666;DHT22;4871;52.004;5.924;2024-02-14T01:57:00;8.5;101.4
9666;DHT22;4871;52.004;5.924;2024-02-14T01:58:00;8.5;101.7
9666;DHT22;4871;52.004;5.924;2024-02-14T01:59:00;8.5;101.7
9666;DHT22;4871;52.004;5.924;2024-02-14T02:00:03;8.5;101.5
9666;DHT22;4871;52.004;5.924;2024-02-14T02:01:00;8.5;101.6
9666;DHT22;4871;52.004;5.924;2024-02-14T02:02:00;8.5;101.2
9666;DHT22;4871;52.004;5.924;2024-02-14T02:03:00;8.5;101.5
9666;DHT22;4871;52.004;5.924;2024-02-14T02:04:01;8.5;101.2
9666;DHT22;4871;52.004;5.924;2024-02-14T02:05:00;8.6;101.4
9666;DHT22;4871;52.004;5.924;2024-02-14T02:06:00;8.6;101.2
9666;DHT22;4871;52.004;5.924;2024-02-14T02:07:00;8.6;101.2
9666;DHT22;4871;52.004;5.924;2024-02-14T02:08:01;8.6;101.4
9666;DHT22;4871;52.004;5.924;2024-02-14T02:09:01;8.6;101.0
9666;DHT22;4871;52.004;5.924;2024-02-14T02:10:00;8.6;101.0
9666;DHT22;4871;52.004;5.924;2024-02-14T02:11:00;8.6;101.3
9666;DHT22;4871;52.004;5.924;2024-02-14T02:12:00;8.6;101.1
9666;DHT22;4871;52.004;5.924;2024-02-14T02:13:01;8.6;101.5
9666;DHT22;4871;52.004;5.924;2024-02-14T02:14:00;8.6;101.5
9666;DHT22;4871;52.004;5.924;2024-02-14T02:15:00;8.6;101.3
9666;DHT22;4871;52.004;5.924;2024-02-14T02:16:05;8.6;101.0
9666;DHT22;4871;52.004;5.924;2024-02-14T02:17:00;8.6;101.0
9666;DHT22;4871;52.004;5.924;2024-02-14T02:18:02;8.6;102.0
9666;DHT22;4871;52.004;5.924;2024-02-14T02:19:00;8.6;102.3
9666;DHT22;4871;52.004;5.924;2024-02-14T02:20:01;8.6;101.5
9666;DHT22;4871;52.004;5.924;2024-02-14T02:21:04;8.6;101.6
9666;DHT22;4871;52.004;5.924;2024-02-14T02:22:00;8.6;102.0
9666;DHT22;4871;52.004;5.924;2024-02-14T02:23:00;8.6;101.6
9666;DHT22;4871;52.004;5.924;2024-02-14T02:24:00;8.6;101.3
9666;DHT22;4871;52.004;5.924;2024-02-14T02:25:00;8.7;101.1
9666;DHT22;4871;52.004;5.924;2024-02-14T02:26:00;8.6;102.4
9666;DHT22;4871;52.004;5.924;2024-02-14T02:27:00;8.6;101.2
9666;DHT22;4871;52.004;5.924;2024-02-14T02:28:00;8.6;101.4
9666;DHT22;4871;52.004;5.924;2024-02-14T02:29:00;8.7;101.6
9666;DHT22;4871;52.004;5.924;2024-02-14T02:30:01;8.7;101.3
9666;DHT22;4871;52.004;5.924;2024-02-14T02:31:00;8.7;101.4
9666;DHT22;4871;52.004;5.924;2024-02-14T02:32:00;8.7;101.5
9666;DHT22;4871;52.004;5.924;2024-02-14T02:33:01;8.7;101.4
9666;DHT22;4871;52.004;5.924;2024-02-14T02:34:00;8.7;101.1
9666;DHT22;4871;52.004;5.924;2024-02-14T02:35:01;8.7;101.8
9666;DHT22;4871;52.004;5.924;2024-02-14T02:36:00;8.7;101.3
9666;DHT22;4871;52.004;5.924;2024-02-14T02:37:00;8.7;102.0
9666;DHT22;4871;52.004;5.924;2024-02-14T02:38:00;8.7;101.8
9666;DHT22;4871;52.004;5.924;2024-02-14T02:39:00;8.7;101.2
9666;DHT22;4871;52.004;5.924;2024-02-14T02:40:00;8.7;101.9
9666;DHT22;4871;52.004;5.924;2024-02-14T02:41:00;8.7;101.4
9666;DHT22;4871;52.004;5.924;2024-02-14T02:42:00;8.7;101.2
9666;DHT22;4871;52.004;5.924;2024-02-14T02:43:00;8.7;102.1
9666;DHT22;4871;52.004;5.924;2024-02-14T02:44:01;8.7;102.4
9666;DHT22;4871;52.004;5.924;2024-02-14T02:45:02;8.7;101.6
9666;DHT22;4871;52.004;5.924;2024-02-14T02:46:00;8.7;101.4
9666;DHT22;4871;52.004;5.924;2024-02-14T02:47:00;8.7;101.9
9666;DHT22;4871;52.004;5.924;2024-02-14T02:48:01;8.8;101.3
9666;DHT22;4871;52.004;5.924;2024-02-14T02:49:02;8.8;102.0
9666;DHT22;4871;52.004;5.924;2024-02-14T02:50:03;8.7;101.7
9666;DHT22;4871;52.004;5.924;2024-02-14T02:51:00;8.8;101.4
9666;DHT22;4871;52.004;5.924;2024-02-14T02:52:00;8.8;101.8
9666;DHT22;4871;52.004;5.924;2024-02-14T02:53:00;8.8;101.7
9666;DHT22;4871;52.004;5.924;2024-02-14T02:54:00;8.8;101.9
9666;DHT22;4871;52.004;5.924;2024-02-14T02:55:01;8.8;102.1
9666;DHT22;4871;52.004;5.924;2024-02-14T02:56:00;8.8;102.2
9666;DHT22;4871;52.004;5.924;2024-02-14T02:57:03;8.8;101.5
9666;DHT22;4871;52.004;5.924;2024-02-14T02:58:00;8.8;102.6
9666;DHT22;4871;52.004;5.924;2024-02-14T02:59:03;8.8;102.2
9666;DHT22;4871;52.004;5.924;2024-02-14T03:00:00;8.8;101.8
9666;DHT22;4871;52.004;5.924;2024-02-14T03:01:00;8.8;101.9
9666;DHT22;4871;52.004;5.924;2024-02-14T03:02:00;8.8;101.7
9666;DHT22;4871;52.004;5.924;2024-02-14T03:03:02;8.8;101.7
9666;DHT22;4871;52.004;5.924;2024-02-14T03:04:01;8.8;102.1
9666;DHT22;4871;52.004;5.924;2024-02-14T03:05:02;8.8;101.6
9666;DHT22;4871;52.004;5.924;2024-02-14T03:06:03;8.8;101.4
9666;DHT22;4871;52.004;5.924;2024-02-14T03:07:04;8.8;101.7
9666;DHT22;4871;52.004;5.924;2024-02-14T03:08:00;8.8;101.4
9666;DHT22;4871;52.004;5.924;2024-02-14T03:09:01;8.9;102.0
9666;DHT22;4871;52.004;5.924;2024-02-14T03:10:00;8.9;101.1
9666;DHT22;4871;52.004;5.924;2024-02-14T03:11:03;8.9;101.6
9666;DHT22;4871;52.004;5.924;2024-02-14T03:12:03;8.9;101.7
9666;DHT22;4871;52.004;5.924;2024-02-14T03:13:00;8.9;102.2
9666;DHT22;4871;52.004;5.924;2024-02-14T03:14:00;8.9;102.1
9666;DHT22;4871;52.004;5.924;2024-02-14T03:15:03;8.9;102.2
9666;DHT22;4871;52.004;5.924;2024-02-14T03:16:00;8.9;101.5
9666;DHT22;4871;52.004;5.924;2024-02-14T03:17:02;8.9;101.6
9666;DHT22;4871;52.004;5.924;2024-02-14T03:18:00;8.9;102.7
9666;DHT22;4871;52.004;5.924;2024-02-14T03:19:00;8.9;101.7
9666;DHT22;4871;52.004;5.924;2024-02-14T03:20:01;8.9;101.4
9666;DHT22;4871;52.004;5.924;2024-02-14T03:21:00;8.9;102.0
9666;DHT22;4871;52.004;5.924;2024-02-14T03:22:00;8.9;101.3
9666;DHT22;4871;52.004;5.924;2024-02-14T03:23:00;8.9;101.9
9666;DHT22;4871;52.004;5.924;2024-02-14T03:24:00;8.9;102.3
9666;DHT22;4871;52.004;5.924;2024-02-14T03:25:01;8.9;101.7
9666;DHT22;4871;52.004;5.924;2024-02-14T03:26:00;8.9;101.7
9666;DHT22;4871;52.004;5.924;2024-02-14T03:27:00;9.0;102.1
9666;DHT22;4871;52.004;5.924;2024-02-14T03:28:00;8.9;102.0
9666;DHT22;4871;52.004;5.924;2024-02-14T03:29:01;9.0;102.2
9666;DHT22;4871;52.004;5.924;2024-02-14T03:30:03;8.9;101.4
9666;DHT22;4871;52.004;5.924;2024-02-14T03:31:00;9.0;101.8
9666;DHT22;4871;52.004;5.924;2024-02-14T03:32:04;9.0;102.1
9666;DHT22;4871;52.004;5.924;2024-02-14T03:33:00;9.0;101.7
9666;DHT22;4871;52.004;5.924;2024-02-14T03:34:02;9.0;101.7
9666;DHT22;4871;52.004;5.924;2024-02-14T03:35:00;9.0;102.0
9666;DHT22;4871;52.004;5.924;2024-02-14T03:36:00;9.0;101.9
9666;DHT22;4871;52.004;5.924;2024-02-14T03:37:02;9.0;102.2
9666;DHT22;4871;52.004;5.924;2024-02-14T03:38:01;9.0;102.4
9666;DHT22;4871;52.004;5.924;2024-02-14T03:39:04;9.0;103.0
9666;DHT22;4871;52.004;5.924;2024-02-14T03:40:00;9.0;102.0
9666;DHT22;4871;52.004;5.924;2024-02-14T03:41:00;9.0;101.8
9666;DHT22;4871;52.004;5.924;2024-02-14T03:42:03;9.0;102.0
9666;DHT22;4871;52.004;5.924;2024-02-14T03:43:00;9.0;102.0
9666;DHT22;4871;52.004;5.924;2024-02-14T03:44:02;9.0;101.6
9666;DHT22;4871;52.004;5.924;2024-02-14T03:45:08;9.0;101.7
9666;DHT22;4871;52.004;5.924;2024-02-14T03:46:00;9.0;101.7
9666;DHT22;4871;52.004;5.924;2024-02-14T03:47:00;9.0;102.3
9666;DHT22;4871;52.004;5.924;2024-02-14T03:48:00;9.0;101.7
9666;DHT22;4871;52.004;5.924;2024-02-14T03:49:00;9.0;101.7
9666;DHT22;4871;52.004;5.924;2024-02-14T03:50:02;9.0;102.0
9666;DHT22;4871;52.004;5.924;2024-02-14T03:51:00;9.1;101.9
9666;DHT22;4871;52.004;5.924;2024-02-14T03:52:01;9.0;102.1
9666;DHT22;4871;52.004;5.924;2024-02-14T03:53:01;9.0;102.0
9666;DHT22;4871;52.004;5.924;2024-02-14T03:54:00;9.0;102.5
9666;DHT22;4871;52.004;5.924;2024-02-14T03:55:01;9.0;102.6
9666;DHT22;4871;52.004;5.924;2024-02-14T03:56:01;9.0;102.4
9666;DHT22;4871;52.004;5.924;2024-02-14T03:57:00;9.1;102.4
9666;DHT22;4871;52.004;5.924;2024-02-14T03:58:01;9.1;102.2
9666;DHT22;4871;52.004;5.924;2024-02-14T03:59:00;9.1;102.0
9666;DHT22;4871;52.004;5.924;2024-02-14T04:00:03;9.1;101.9
9666;DHT22;4871;52.004;5.924;2024-02-14T04:01:02;9.1;102.0
9666;DHT22;4871;52.004;5.924;2024-02-14T04:02:00;9.1;102.2
9666;DHT22;4871;52.004;5.924;2024-02-14T04:03:00;9.1;101.8
9666;DHT22;4871;52.004;5.924;2024-02-14T04:04:00;9.1;101.5
9666;DHT22;4871;52.004;5.924;2024-02-14T04:05:00;9.1;101.8
9666;DHT22;4871;52.004;5.924;2024-02-14T04:06:00;9.1;101.8
9666;DHT22;4871;52.004;5.924;2024-02-14T04:07:02;9.1;101.8
9666;DHT22;4871;52.004;5.924;2024-02-14T04:08:00;9.1;102.3
9666;DHT22;4871;52.004;5.924;2024-02-14T04:09:00;9.1;101.8
9666;DHT22;4871;52.004;5.924;2024-02-14T04:10:00;9.1;102.0
9666;DHT22;4871;52.004;5.924;2024-02-14T04:11:00;9.1;102.6
9666;DHT22;4871;52.004;5.924;2024-02-14T04:12:00;9.1;101.9
9666;DHT22;4871;52.004;5.924;2024-02-14T04:13:00;9.1;102.2
9666;DHT22;4871;52.004;5.924;2024-02-14T04:14:00;9.2;101.9
9666;DHT22;4871;52.004;5.924;2024-02-14T04:15:00;9.2;102.1
9666;DHT22;4871;52.004;5.924;2024-02-14T04:16:01;9.2;102.1
9666;DHT22;4871;52.004;5.924;2024-02-14T04:17:00;9.2;102.3
9666;DHT22;4871;52.004;5.924;2024-02-14T04:18:04;9.2;102.2
9666;DHT22;4871;52.004;5.924;2024-02-14T04:19:00;9.2;101.9
9666;DHT22;4871;52.004;5.924;2024-02-14T04:20:00;9.2;101.9
9666;DHT22;4871;52.004;5.924;2024-02-14T04:21:00;9.2;102.4
9666;DHT22;4871;52.004;5.924;2024-02-14T04:22:00;9.2;101.5
9666;DHT22;4871;52.004;5.924;2024-02-14T04:23:01;9.2;101.7
9666;DHT22;4871;52.004;5.924;2024-02-14T04:24:00;9.2;102.1
9666;DHT22;4871;52.004;5.924;2024-02-14T04:25:00;9.2;102.3
9666;DHT22;4871;52.004;5.924;2024-02-14T04:26:00;9.2;102.5
9666;DHT22;4871;52.004;5.924;2024-02-14T04:27:03;9.2;102.4
9666;DHT22;4871;52.004;5.924;2024-02-14T04:28:02;9.2;101.7
9666;DHT22;4871;52.004;5.924;2024-02-14T04:29:00;9.2;102.4
9666;DHT22;4871;52.004;5.924;2024-02-14T04:30:01;9.2;102.0
9666;DHT22;4871;52.004;5.924;2024-02-14T04:31:00;9.2;102.2
9666;DHT22;4871;52.004;5.924;2024-02-14T04:32:00;9.2;102.4
9666;DHT22;4871;52.004;5.924;2024-02-14T04:33:01;9.2;102.2
9666;DHT22;4871;52.004;5.924;2024-02-14T04:34:00;9.2;102.2
9666;DHT22;4871;52.004;5.924;2024-02-14T04:35:01;9.2;101.9
9666;DHT22;4871;52.004;5.924;2024-02-14T04:36:00;9.3;102.1
9666;DHT22;4871;52.004;5.924;2024-02-14T04:37:02;9.3;102.1
9666;DHT22;4871;52.004;5.924;2024-02-14T04:38:01;9.2;102.2
9666;DHT22;4871;52.004;5.924;2024-02-14T04:39:01;9.3;102.7
9666;DHT22;4871;52.004;5.924;2024-02-14T04:40:01;9.3;102.1
9666;DHT22;4871;52.004;5.924;2024-02-14T04:41:00;9.3;102.7
9666;DHT22;4871;52.004;5.924;2024-02-14T04:42:01;9.3;102.4
9666;DHT22;4871;52.004;5.924;2024-02-14T04:43:00;9.3;102.4
9666;DHT22;4871;52.004;5.924;2024-02-14T04:44:00;9.3;102.4
9666;DHT22;4871;52.004;5.924;2024-02-14T04:45:01;9.3;102.3
9666;DHT22;4871;52.004;5.924;2024-02-14T04:46:00;9.3;102.6
9666;DHT22;4871;52.004;5.924;2024-02-14T04:47:00;9.3;102.3
9666;DHT22;4871;52.004;5.924;2024-02-14T04:48:00;9.3;102.1
9666;DHT22;4871;52.004;5.924;2024-02-14T04:49:01;9.3;102.1
9666;DHT22;4871;52.004;5.924;2024-02-14T04:50:03;9.3;102.4
9666;DHT22;4871;52.004;5.924;2024-02-14T04:51:00;9.3;102.3
9666;DHT22;4871;52.004;5.924;2024-02-14T04:52:00;9.3;102.1
9666;DHT22;4871;52.004;5.924;2024-02-14T04:53:00;9.3;102.1
9666;DHT22;4871;52.004;5.924;2024-02-14T04:54:00;9.3;102.5
9666;DHT22;4871;52.004;5.924;2024-02-14T04:55:00;9.3;102.3
9666;DHT22;4871;52.004;5.924;2024-02-14T04:56:00;9.3;102.2
9666;DHT22;4871;52.004;5.924;2024-02-14T04:57:00;9.3;101.9
9666;DHT22;4871;52.004;5.924;2024-02-14T04:58:00;9.4;102.2
9666;DHT22;4871;52.004;5.924;2024-02-14T04:59:00;9.4;101.9
9666;DHT22;4871;52.004;5.924;2024-02-14T05:00:00;9.3;102.9
9666;DHT22;4871;52.004;5.924;2024-02-14T05:01:02;9.3;102.4
9666;DHT22;4871;52.004;5.924;2024-02-14T05:02:00;9.3;102.2
9666;DHT22;4871;52.004;5.924;2024-02-14T05:03:01;9.4;102.7
9666;DHT22;4871;52.004;5.924;2024-02-14T05:04:00;9.3;102.3
9666;DHT22;4871;52.004;5.924;2024-02-14T05:05:01;9.3;102.3
9666;DHT22;4871;52.004;5.924;2024-02-14T05:06:02;9.4;102.3
9666;DHT22;4871;52.004;5.924;2024-02-14T05:07:00;9.4;102.0
9666;DHT22;4871;52.004;5.924;2024-02-14T05:08:00;9.4;102.2
9666;DHT22;4871;52.004;5.924;2024-02-14T05:09:00;9.4;102.1
9666;DHT22;4871;52.004;5.924;2024-02-14T05:10:00;9.4;102.1
9666;DHT22;4871;52.004;5.924;2024-02-14T05:11:00;9.4;102.1
9666;DHT22;4871;52.004;5.924;2024-02-14T05:12:00;9.4;102.4
9666;DHT22;4871;52.004;5.924;2024-02-14T05:13:01;9.4;102.4
9666;DHT22;4871;52.004;5.924;2024-02-14T05:14:01;9.4;102.0
9666;DHT22;4871;52.004;5.924;2024-02-14T05:15:00;9.4;102.7
9666;DHT22;4871;52.004;5.924;2024-02-14T05:16:02;9.4;102.3
9666;DHT22;4871;52.004;5.924;2024-02-14T05:17:01;9.4;102.2
9666;DHT22;4871;52.004;5.924;2024-02-14T05:18:00;9.4;102.3
9666;DHT22;4871;52.004;5.924;2024-02-14T05:19:01;9.4;102.4
9666;DHT22;4871;52.004;5.924;2024-02-14T05:20:00;9.4;102.6
9666;DHT22;4871;52.004;5.924;2024-02-14T05:21:00;9.4;102.5
9666;DHT22;4871;52.004;5.924;2024-02-14T05:22:00;9.4;102.2
9666;DHT22;4871;52.004;5.924;2024-02-14T05:23:00;9.4;102.3
9666;DHT22;4871;52.004;5.924;2024-02-14T05:24:01;9.4;102.3
9666;DHT22;4871;52.004;5.924;2024-02-14T05:25:00;9.4;102.3
9666;DHT22;4871;52.004;5.924;2024-02-14T05:26:02;9.4;102.3
9666;DHT22;4871;52.004;5.924;2024-02-14T05:27:00;9.5;102.5
9666;DHT22;4871;52.004;5.924;2024-02-14T05:28:00;9.5;102.1
9666;DHT22;4871;52.004;5.924;2024-02-14T05:29:01;9.4;102.0
9666;DHT22;4871;52.004;5.924;2024-02-14T05:30:00;9.5;102.3
9666;DHT22;4871;52.004;5.924;2024-02-14T05:31:01;9.5;102.4
9666;DHT22;4871;52.004;5.924;2024-02-14T05:32:00;9.5;102.1
9666;DHT22;4871;52.004;5.924;2024-02-14T05:33:01;9.5;102.3
9666;DHT22;4871;52.004;5.924;2024-02-14T05:34:00;9.5;102.6
9666;DHT22;4871;52.004;5.924;2024-02-14T05:35:01;9.5;102.4
9666;DHT22;4871;52.004;5.924;2024-02-14T05:36:00;9.5;102.5
9666;DHT22;4871;52.004;5.924;2024-02-14T05:37:00;9.5;102.2
9666;DHT22;4871;52.004;5.924;2024-02-14T05:38:00;9.5;102.3
9666;DHT22;4871;52.004;5.924;2024-02-14T05:39:00;9.5;102.5
9666;DHT22;4871;52.004;5.924;2024-02-14T05:40:00;9.5;102.6
9666;DHT22;4871;52.004;5.924;2024-02-14T05:41:00;9.5;102.7
9666;DHT22;4871;52.004;5.924;2024-02-14T05:42:00;9.5;102.8
9666;DHT22;4871;52.004;5.924;2024-02-14T05:43:00;9.5;102.1
9666;DHT22;4871;52.004;5.924;2024-02-14T05:44:01;9.5;102.3
9666;DHT22;4871;52.004;5.924;2024-02-14T05:45:02;9.5;102.6
9666;DHT22;4871;52.004;5.924;2024-02-14T05:46:00;9.5;102.3
9666;DHT22;4871;52.004;5.924;2024-02-14T05:47:00;9.5;102.2
9666;DHT22;4871;52.004;5.924;2024-02-14T05:48:00;9.5;102.2
9666;DHT22;4871;52.004;5.924;2024-02-14T05:49:00;9.5;102.1
9666;DHT22;4871;52.004;5.924;2024-02-14T05:50:00;9.5;102.3
9666;DHT22;4871;52.004;5.924;2024-02-14T05:51:00;9.5;102.6
9666;DHT22;4871;52.004;5.924;2024-02-14T05:52:01;9.5;102.0
9666;DHT22;4871;52.004;5.924;2024-02-14T05:53:01;9.6;102.6
9666;DHT22;4871;52.004;5.924;2024-02-14T05:54:00;9.6;102.2
9666;DHT22;4871;52.004;5.924;2024-02-14T05:55:00;9.5;102.3
9666;DHT22;4871;52.004;5.924;2024-02-14T05:56:00;9.6;102.3
9666;DHT22;4871;52.004;5.924;2024-02-14T05:57:02;9.5;102.0
9666;DHT22;4871;52.004;5.924;2024-02-14T05:58:00;9.6;102.7
9666;DHT22;4871;52.004;5.924;2024-02-14T05:59:00;9.6;102.6
9666;DHT22;4871;52.004;5.924;2024-02-14T06:00:00;9.6;102.4
9666;DHT22;4871;52.004;5.924;2024-02-14T06:01:00;9.6;102.5
9666;DHT22;4871;52.004;5.924;2024-02-14T06:02:03;9.6;102.8
9666;DHT22;4871;52.004;5.924;2024-02-14T06:03:02;9.6;102.4
9666;DHT22;4871;52.004;5.924;2024-02-14T06:04:00;9.6;102.4
9666;DHT22;4871;52.004;5.924;2024-02-14T06:05:00;9.5;102.6
9666;DHT22;4871;52.004;5.924;2024-02-14T06:06:00;9.6;102.8
9666;DHT22;4871;52.004;5.924;2024-02-14T06:07:00;9.6;102.2
9666;DHT22;4871;52.004;5.924;2024-02-14T06:08:03;9.6;102.6
9666;DHT22;4871;52.004;5.924;2024-02-14T06:09:00;9.6;102.6
9666;DHT22;4871;52.004;5.924;2024-02-14T06:10:00;9.6;102.3
9666;DHT22;4871;52.004;5.924;2024-02-14T06:11:00;9.6;102.4
9666;DHT22;4871;52.004;5.924;2024-02-14T06:12:00;9.6;102.4
9666;DHT22;4871;52.004;5.924;2024-02-14T06:13:00;9.6;102.8
9666;DHT22;4871;52.004;5.924;2024-02-14T06:14:00;9.6;102.0
9666;DHT22;4871;52.004;5.924;2024-02-14T06:15:00;9.6;102.2
9666;DHT22;4871;52.004;5.924;2024-02-14T06:16:00;9.6;102.5
9666;DHT22;4871;52.004;5.924;2024-02-14T06:17:01;9.6;102.3
9666;DHT22;4871;52.004;5.924;2024-02-14T06:18:01;9.6;102.4
9666;DHT22;4871;52.004;5.924;2024-02-14T06:19:01;9.6;102.9
9666;DHT22;4871;52.004;5.924;2024-02-14T06:20:06;9.6;102.5
9666;DHT22;4871;52.004;5.924;2024-02-14T06:21:00;9.6;101.8
9666;DHT22;4871;52.004;5.924;2024-02-14T06:22:00;9.6;102.7
9666;DHT22;4871;52.004;5.924;2024-02-14T06:23:00;9.6;102.5
9666;DHT22;4871;52.004;5.924;2024-02-14T06:24:00;9.6;102.8
9666;DHT22;4871;52.004;5.924;2024-02-14T06:25:00;9.6;102.3
9666;DHT22;4871;52.004;5.924;2024-02-14T06:26:00;9.6;102.4
9666;DHT22;4871;52.004;5.924;2024-02-14T06:27:00;9.6;102.3
9666;DHT22;4871;52.004;5.924;2024-02-14T06:28:00;9.6;102.2
9666;DHT22;4871;52.004;5.924;2024-02-14T06:29:00;9.7;102.4
9666;DHT22;4871;52.004;5.924;2024-02-14T06:30:00;9.7;102.0
9666;DHT22;4871;52.004;5.924;2024-02-14T06:31:00;9.7;102.3
9666;DHT22;4871;52.004;5.924;2024-02-14T06:32:00;9.7;102.2
9666;DHT22;4871;52.004;5.924;2024-02-14T06:33:02;9.7;102.5
9666;DHT22;4871;52.004;5.924;2024-02-14T06:34:00;9.7;102.2
9666;DHT22;4871;52.004;5.924;2024-02-14T06:35:01;9.7;102.2
9666;DHT22;4871;52.004;5.924;2024-02-14T06:36:00;9.7;102.5
9666;DHT22;4871;52.004;5.924;2024-02-14T06:37:00;9.7;102.1
9666;DHT22;4871;52.004;5.924;2024-02-14T06:38:00;9.7;102.3
9666;DHT22;4871;52.004;5.924;2024-02-14T06:39:00;9.7;102.1
9666;DHT22;4871;52.004;5.924;2024-02-14T06:40:00;9.7;102.3
9666;DHT22;4871;52.004;5.924;2024-02-14T06:41:01;9.7;102.7
9666;DHT22;4871;52.004;5.924;2024-02-14T06:42:00;9.7;102.2
9666;DHT22;4871;52.004;5.924;2024-02-14T06:43:00;9.7;102.9
9666;DHT22;4871;52.004;5.924;2024-02-14T06:44:00;9.7;102.0